createdAt,value
2019-05-13T00:00:03.792Z,21.22
2019-05-13T00:01:07.358Z,21.21
2019-05-13T00:02:10.191Z,21.21
2019-05-13T00:03:13.689Z,21.22
2019-05-13T00:04:16.686Z,21.22
2019-05-13T00:05:19.898Z,21.21
2019-05-13T00:06:23.842Z,21.21
2019-05-13T00:07:27.093Z,21.20
2019-05-13T00:08:29.779Z,21.21
2019-05-13T00:09:33.907Z,21.21
2019-05-13T00:10:36.911Z,21.20
2019-05-13T00:11:40.028Z,21.20
2019-05-13T00:12:44.619Z,21.19
2019-05-13T00:13:47.560Z,21.18
2019-05-13T00:14:50.326Z,21.19
2019-05-13T00:15:54.406Z,21.18
2019-05-13T00:16:57.251Z,21.19
2019-05-13T00:18:00.372Z,21.18
2019-05-13T00:19:04.178Z,21.19
2019-05-13T00:20:07.501Z,21.18
2019-05-13T00:21:10.257Z,21.17
2019-05-13T00:22:14.087Z,21.19
2019-05-13T00:23:16.957Z,21.18
2019-05-13T00:24:20.148Z,21.17
2019-05-13T00:25:24.184Z,21.18
2019-05-13T00:26:27.429Z,21.18
2019-05-13T00:27:30.200Z,21.17
2019-05-13T00:28:34.294Z,21.17
2019-05-13T00:29:37.225Z,21.16
2019-05-13T00:30:40.355Z,21.15
2019-05-13T00:31:43.844Z,21.16
2019-05-13T00:32:47.195Z,21.16
2019-05-13T00:33:49.872Z,21.16
2019-05-13T00:34:53.418Z,21.17
2019-05-13T00:35:56.392Z,21.16
2019-05-13T00:37:08.674Z,21.16
2019-05-13T00:38:04.178Z,21.17
2019-05-13T00:39:07.944Z,21.17
2019-05-13T00:40:10.713Z,21.15
2019-05-13T00:41:14.214Z,21.16
2019-05-13T00:42:17.129Z,21.15
2019-05-13T00:43:20.252Z,21.14
2019-05-13T00:44:24.379Z,21.15
2019-05-13T00:45:27.668Z,21.14
2019-05-13T00:46:30.333Z,21.14
2019-05-13T00:47:34.179Z,21.14
2019-05-13T00:48:36.874Z,21.16
2019-05-13T00:49:40.000Z,21.15
2019-05-13T00:50:44.278Z,21.14
2019-05-13T00:51:47.758Z,21.15
2019-05-13T00:52:53.482Z,21.13
2019-05-13T00:53:56.036Z,21.14
2019-05-13T00:54:58.721Z,21.14
2019-05-13T00:56:03.930Z,21.15
2019-05-13T00:57:06.369Z,21.13
2019-05-13T00:58:13.749Z,21.13
2019-05-13T00:59:15.848Z,21.12
2019-05-13T01:00:18.976Z,21.12
2019-05-13T01:01:24.193Z,21.11
2019-05-13T01:02:26.610Z,21.11
2019-05-13T01:03:29.409Z,21.09
2019-05-13T01:04:33.936Z,21.10
2019-05-13T01:05:36.904Z,21.10
2019-05-13T01:06:40.030Z,21.12
2019-05-13T01:07:44.316Z,21.11
2019-05-13T01:08:47.634Z,21.11
2019-05-13T01:09:50.445Z,21.10
2019-05-13T01:10:53.749Z,21.11
2019-05-13T01:11:56.535Z,21.11
2019-05-13T01:12:59.661Z,21.10
2019-05-13T01:14:04.235Z,21.10
2019-05-13T01:15:07.440Z,21.09
2019-05-13T01:16:10.195Z,21.09
2019-05-13T01:17:14.163Z,21.10
2019-05-13T01:18:17.142Z,21.11
2019-05-13T01:19:20.227Z,21.12
2019-05-13T01:20:23.534Z,21.09
2019-05-13T01:21:26.807Z,21.08
2019-05-13T01:22:29.567Z,21.09
2019-05-13T01:23:34.417Z,21.08
2019-05-13T01:24:37.133Z,21.07
2019-05-13T01:25:40.263Z,21.07
2019-05-13T01:26:43.834Z,21.08
2019-05-13T01:27:47.145Z,21.08
2019-05-13T01:28:49.914Z,21.08
2019-05-13T01:29:53.504Z,21.08
2019-05-13T01:30:56.468Z,21.07
2019-05-13T01:31:59.585Z,21.07
2019-05-13T01:33:04.460Z,21.05
2019-05-13T01:34:07.118Z,21.07
2019-05-13T01:35:10.123Z,21.06
2019-05-13T01:36:13.514Z,21.06
2019-05-13T01:37:16.401Z,21.06
2019-05-13T01:38:19.562Z,21.07
2019-05-13T01:39:24.330Z,21.05
2019-05-13T01:40:28.214Z,21.05
2019-05-13T01:41:32.852Z,21.06
2019-05-13T01:42:35.733Z,21.06
2019-05-13T01:43:38.490Z,21.05
2019-05-13T01:44:43.792Z,21.07
2019-05-13T01:45:46.145Z,21.05
2019-05-13T01:46:49.276Z,21.04
2019-05-13T01:47:53.810Z,21.05
2019-05-13T01:48:56.853Z,21.04
2019-05-13T01:49:59.596Z,21.04
2019-05-13T01:51:03.772Z,21.05
2019-05-13T01:52:06.825Z,21.05
2019-05-13T01:53:09.956Z,21.05
2019-05-13T01:54:14.222Z,21.04
2019-05-13T01:55:17.561Z,21.05
2019-05-13T01:56:20.358Z,21.04
2019-05-13T01:57:23.900Z,21.04
2019-05-13T01:58:26.741Z,21.05
2019-05-13T01:59:29.944Z,21.04
2019-05-13T02:00:35.415Z,21.05
2019-05-13T02:01:37.583Z,21.04
2019-05-13T02:02:40.347Z,21.03
2019-05-13T02:03:44.212Z,21.04
2019-05-13T02:04:47.146Z,21.02
2019-05-13T02:05:50.277Z,21.02
2019-05-13T02:06:54.359Z,21.03
2019-05-13T02:08:00.541Z,21.04
2019-05-13T02:09:03.892Z,21.04
2019-05-13T02:10:07.585Z,21.04
2019-05-13T02:11:10.345Z,21.02
2019-05-13T02:12:13.618Z,21.03
2019-05-13T02:13:16.369Z,21.01
2019-05-13T02:14:19.510Z,21.02
2019-05-13T02:15:23.298Z,21.01
2019-05-13T02:16:26.484Z,21.02
2019-05-13T02:17:29.287Z,21.02
2019-05-13T02:18:34.222Z,21.01
2019-05-13T02:19:36.749Z,21.01
2019-05-13T02:20:39.884Z,21.00
2019-05-13T02:21:43.906Z,21.01
2019-05-13T02:22:47.321Z,20.99
2019-05-13T02:23:50.161Z,21.00
2019-05-13T02:24:53.597Z,21.00
2019-05-13T02:25:56.451Z,20.98
2019-05-13T02:27:00.492Z,20.99
2019-05-13T02:28:09.724Z,20.98
2019-05-13T02:29:08.042Z,20.99
2019-05-13T02:30:10.874Z,20.98
2019-05-13T02:31:22.558Z,20.98
2019-05-13T02:32:18.430Z,20.97
2019-05-13T02:33:23.116Z,20.98
2019-05-13T02:34:27.580Z,20.97
2019-05-13T02:35:32.512Z,20.96
2019-05-13T02:36:35.100Z,20.98
2019-05-13T02:37:38.243Z,20.96
2019-05-13T02:38:42.675Z,20.98
2019-05-13T02:39:45.843Z,20.97
2019-05-13T02:40:48.595Z,20.97
2019-05-13T02:41:52.661Z,20.95
2019-05-13T02:42:55.786Z,20.96
2019-05-13T02:43:58.914Z,20.97
2019-05-13T02:45:03.699Z,20.96
2019-05-13T02:46:08.216Z,20.97
2019-05-13T02:47:12.334Z,20.96
2019-05-13T02:48:15.588Z,20.97
2019-05-13T02:49:18.505Z,20.96
2019-05-13T02:50:22.509Z,20.95
2019-05-13T02:51:25.602Z,20.96
2019-05-13T02:52:28.725Z,20.95
2019-05-13T02:53:33.564Z,20.96
2019-05-13T02:54:36.291Z,20.95
2019-05-13T02:55:39.057Z,20.95
2019-05-13T02:56:42.518Z,20.96
2019-05-13T02:57:45.343Z,20.88
2019-05-13T02:58:48.447Z,20.77
2019-05-13T02:59:52.609Z,20.74
2019-05-13T03:00:56.045Z,20.69
2019-05-13T03:01:58.797Z,20.64
2019-05-13T03:03:03.315Z,20.59
2019-05-13T03:04:06.279Z,20.57
2019-05-13T03:05:13.183Z,20.58
2019-05-13T03:06:14.072Z,20.58
2019-05-13T03:07:17.203Z,20.59
2019-05-13T03:08:38.490Z,20.57
2019-05-13T03:09:24.743Z,20.59
2019-05-13T03:10:27.644Z,20.57
2019-05-13T03:11:33.118Z,20.54
2019-05-13T03:12:35.180Z,20.55
2019-05-13T03:13:38.300Z,20.53
2019-05-13T03:14:47.413Z,20.52
2019-05-13T03:15:55.853Z,20.49
2019-05-13T03:17:03.024Z,20.47
2019-05-13T03:18:05.894Z,20.44
2019-05-13T03:19:08.642Z,20.42
2019-05-13T03:20:16.366Z,20.44
2019-05-13T03:21:16.201Z,20.45
2019-05-13T03:22:22.147Z,20.42
2019-05-13T03:23:23.717Z,20.43
2019-05-13T03:24:26.883Z,20.40
2019-05-13T03:25:32.769Z,20.43
2019-05-13T03:26:34.560Z,20.40
2019-05-13T03:27:37.322Z,20.41
2019-05-13T03:28:43.111Z,20.38
2019-05-13T03:29:44.944Z,20.36
2019-05-13T03:30:48.103Z,20.38
2019-05-13T03:31:55.633Z,20.39
2019-05-13T03:33:01.790Z,20.37
2019-05-13T03:34:05.630Z,20.35
2019-05-13T03:35:07.842Z,20.38
2019-05-13T03:36:15.281Z,20.39
2019-05-13T03:37:15.890Z,20.36
2019-05-13T03:38:22.371Z,20.42
2019-05-13T03:39:24.029Z,20.40
2019-05-13T03:40:28.044Z,20.41
2019-05-13T03:41:33.059Z,20.42
2019-05-13T03:42:36.862Z,20.38
2019-05-13T03:43:43.057Z,20.35
2019-05-13T03:44:45.196Z,20.34
2019-05-13T03:45:48.849Z,20.36
2019-05-13T03:47:03.450Z,20.33
2019-05-13T03:48:05.550Z,20.27
2019-05-13T03:49:13.321Z,20.29
2019-05-13T03:50:14.539Z,20.31
2019-05-13T03:51:17.599Z,20.32
2019-05-13T03:52:22.724Z,20.39
2019-05-13T03:53:25.451Z,20.42
2019-05-13T03:54:29.075Z,20.40
2019-05-13T03:55:33.496Z,20.42
2019-05-13T03:56:36.810Z,20.40
2019-05-13T03:57:45.333Z,20.38
2019-05-13T03:58:53.685Z,20.43
2019-05-13T03:59:56.652Z,20.40
2019-05-13T04:01:02.464Z,20.41
2019-05-13T04:02:08.454Z,20.38
2019-05-13T04:03:13.505Z,20.36
2019-05-13T04:04:23.729Z,20.37
2019-05-13T04:05:36.568Z,20.35
2019-05-13T04:06:42.657Z,20.37
2019-05-13T04:07:44.243Z,20.35
2019-05-13T04:08:47.003Z,20.33
2019-05-13T04:09:52.510Z,20.37
2019-05-13T04:10:54.707Z,20.33
2019-05-13T04:11:57.861Z,20.37
2019-05-13T04:13:03.754Z,20.34
2019-05-13T04:14:05.675Z,20.35
2019-05-13T04:15:08.635Z,20.36
2019-05-13T04:16:12.809Z,20.38
2019-05-13T04:17:16.263Z,20.35
2019-05-13T04:18:23.100Z,20.35
2019-05-13T04:19:23.922Z,20.29
2019-05-13T04:20:27.102Z,20.34
2019-05-13T04:21:33.506Z,20.44
2019-05-13T04:22:34.650Z,20.53
2019-05-13T04:23:37.406Z,20.59
2019-05-13T04:24:42.666Z,20.64
2019-05-13T04:25:45.085Z,20.69
2019-05-13T04:26:48.185Z,20.72
2019-05-13T04:27:52.381Z,20.74
2019-05-13T04:28:55.608Z,20.77
2019-05-13T04:29:58.371Z,20.78
2019-05-13T04:31:03.522Z,20.81
2019-05-13T04:32:05.959Z,20.82
2019-05-13T04:33:09.898Z,20.85
2019-05-13T04:34:12.686Z,20.87
2019-05-13T04:35:15.787Z,20.89
2019-05-13T04:36:18.633Z,20.89
2019-05-13T04:37:22.387Z,20.92
2019-05-13T04:38:25.233Z,20.93
2019-05-13T04:39:44.735Z,20.95
2019-05-13T04:40:33.307Z,20.97
2019-05-13T04:41:36.645Z,20.97
2019-05-13T04:42:42.497Z,20.98
2019-05-13T04:43:44.473Z,21.00
2019-05-13T04:44:47.289Z,20.99
2019-05-13T04:45:52.394Z,21.01
2019-05-13T04:46:54.970Z,21.01
2019-05-13T04:47:58.112Z,21.01
2019-05-13T04:49:02.186Z,21.02
2019-05-13T04:50:06.995Z,21.02
2019-05-13T04:51:13.223Z,21.02
2019-05-13T04:52:15.071Z,21.04
2019-05-13T04:53:17.943Z,21.04
2019-05-13T04:54:22.602Z,21.04
2019-05-13T04:55:25.649Z,21.05
2019-05-13T04:56:28.786Z,21.05
2019-05-13T04:57:33.192Z,21.06
2019-05-13T04:58:36.529Z,21.06
2019-05-13T04:59:41.309Z,21.06
2019-05-13T05:00:49.716Z,21.07
2019-05-13T05:02:05.027Z,21.06
2019-05-13T05:03:33.023Z,21.06
2019-05-13T05:04:38.275Z,21.07
2019-05-13T05:05:42.851Z,21.08
2019-05-13T05:06:58.997Z,21.09
2019-05-13T05:08:12.605Z,21.10
2019-05-13T05:09:16.831Z,21.12
2019-05-13T05:10:39.036Z,21.12
2019-05-13T05:11:56.150Z,21.15
2019-05-13T05:13:17.630Z,21.17
2019-05-13T05:14:22.544Z,21.18
2019-05-13T05:15:32.281Z,21.20
2019-05-13T05:16:47.814Z,21.21
2019-05-13T05:17:55.099Z,21.22
2019-05-13T05:19:16.101Z,21.23
2019-05-13T05:20:29.445Z,21.24
2019-05-13T05:21:42.688Z,21.24
2019-05-13T05:23:02.585Z,21.25
2019-05-13T05:24:24.887Z,21.25
2019-05-13T05:25:29.497Z,21.25
2019-05-13T05:26:45.848Z,21.24
2019-05-13T05:27:51.430Z,21.25
2019-05-13T05:28:55.812Z,21.25
2019-05-13T05:30:06.411Z,21.26
2019-05-13T05:31:16.614Z,21.26
2019-05-13T05:32:24.092Z,21.28
2019-05-13T05:33:37.526Z,21.28
2019-05-13T05:34:48.050Z,21.27
2019-05-13T05:35:52.262Z,21.27
2019-05-13T05:37:03.050Z,21.27
2019-05-13T05:38:07.316Z,21.26
2019-05-13T05:39:17.595Z,21.27
2019-05-13T05:40:31.326Z,21.27
2019-05-13T05:41:28.079Z,21.28
2019-05-13T05:42:32.361Z,21.27
2019-05-13T05:43:36.787Z,21.27
2019-05-13T05:44:42.175Z,21.28
2019-05-13T05:45:45.333Z,21.28
2019-05-13T05:46:48.677Z,21.27
2019-05-13T05:47:52.119Z,21.29
2019-05-13T05:48:55.636Z,21.27
2019-05-13T05:49:59.381Z,21.29
2019-05-13T05:51:03.832Z,21.28
2019-05-13T05:52:07.367Z,21.28
2019-05-13T05:53:11.961Z,21.29
2019-05-13T05:54:16.570Z,21.30
2019-05-13T05:55:21.354Z,21.31
2019-05-13T05:56:24.800Z,21.32
2019-05-13T05:57:27.858Z,21.32
2019-05-13T05:58:31.666Z,21.36
2019-05-13T05:59:35.018Z,21.38
2019-05-13T06:00:41.317Z,21.40
2019-05-13T06:01:44.986Z,21.42
2019-05-13T06:02:52.974Z,21.44
2019-05-13T06:03:54.673Z,21.46
2019-05-13T06:04:57.873Z,21.49
2019-05-13T06:06:01.670Z,21.51
2019-05-13T06:07:05.350Z,21.52
2019-05-13T06:08:08.105Z,21.53
2019-05-13T06:09:12.225Z,21.57
2019-05-13T06:10:15.540Z,21.60
2019-05-13T06:11:22.143Z,21.63
2019-05-13T06:12:24.755Z,21.66
2019-05-13T06:13:27.864Z,21.69
2019-05-13T06:14:32.664Z,21.70
2019-05-13T06:15:35.550Z,21.71
2019-05-13T06:16:38.303Z,21.72
2019-05-13T06:17:41.688Z,21.73
2019-05-13T06:18:44.563Z,21.74
2019-05-13T06:19:47.811Z,21.75
2019-05-13T06:20:51.245Z,21.77
2019-05-13T06:21:54.515Z,21.81
2019-05-13T06:22:57.269Z,21.85
2019-05-13T06:24:02.720Z,21.86
2019-05-13T06:25:06.037Z,21.87
2019-05-13T06:26:09.162Z,21.88
2019-05-13T06:27:12.011Z,21.88
2019-05-13T06:28:15.250Z,21.87
2019-05-13T06:29:18.022Z,21.86
2019-05-13T06:30:21.871Z,21.84
2019-05-13T06:31:24.849Z,21.83
2019-05-13T06:32:27.999Z,21.83
2019-05-13T06:33:31.645Z,21.85
2019-05-13T06:34:34.967Z,21.86
2019-05-13T06:35:37.794Z,21.87
2019-05-13T06:36:41.811Z,21.90
2019-05-13T06:37:44.672Z,21.93
2019-05-13T06:38:47.792Z,21.94
2019-05-13T06:39:51.221Z,21.97
2019-05-13T06:41:02.838Z,21.95
2019-05-13T06:41:58.942Z,21.92
2019-05-13T06:43:02.068Z,21.90
2019-05-13T06:44:05.521Z,21.91
2019-05-13T06:45:09.034Z,21.94
2019-05-13T06:46:12.405Z,21.96
2019-05-13T06:47:15.669Z,21.98
2019-05-13T06:48:18.446Z,22.00
2019-05-13T06:49:21.823Z,22.03
2019-05-13T06:50:24.638Z,22.03
2019-05-13T06:51:27.816Z,22.05
2019-05-13T06:52:31.978Z,22.07
2019-05-13T06:53:35.320Z,22.06
2019-05-13T06:54:38.070Z,22.05
2019-05-13T06:55:41.817Z,22.05
2019-05-13T06:56:44.804Z,22.05
2019-05-13T06:57:47.942Z,22.08
2019-05-13T06:58:52.007Z,22.08
2019-05-13T06:59:55.341Z,22.08
2019-05-13T07:00:58.790Z,22.06
2019-05-13T07:02:02.505Z,22.03
2019-05-13T07:03:05.317Z,22.04
2019-05-13T07:04:08.437Z,22.04
2019-05-13T07:05:12.094Z,22.05
2019-05-13T07:06:15.339Z,22.05
2019-05-13T07:07:18.195Z,22.06
2019-05-13T07:08:22.180Z,22.07
2019-05-13T07:09:25.068Z,22.08
2019-05-13T07:10:28.185Z,22.08
2019-05-13T07:11:31.545Z,22.08
2019-05-13T07:12:34.844Z,22.08
2019-05-13T07:13:37.612Z,22.07
2019-05-13T07:14:41.426Z,22.07
2019-05-13T07:15:46.304Z,22.06
2019-05-13T07:16:49.162Z,22.08
2019-05-13T07:17:52.163Z,22.06
2019-05-13T07:18:55.403Z,22.06
2019-05-13T07:19:58.162Z,22.08
2019-05-13T07:21:02.202Z,22.06
2019-05-13T07:22:05.259Z,22.05
2019-05-13T07:23:08.399Z,22.04
2019-05-13T07:24:12.636Z,22.04
2019-05-13T07:25:16.130Z,22.04
2019-05-13T07:26:18.895Z,22.03
2019-05-13T07:27:22.908Z,22.02
2019-05-13T07:28:25.985Z,21.99
2019-05-13T07:29:29.124Z,21.98
2019-05-13T07:30:39.394Z,21.98
2019-05-13T07:31:42.619Z,21.98
2019-05-13T07:32:45.492Z,21.97
2019-05-13T07:33:48.686Z,21.96
2019-05-13T07:34:53.190Z,21.97
2019-05-13T07:35:58.590Z,21.95
2019-05-13T07:37:02.251Z,21.95
2019-05-13T07:38:06.148Z,21.96
2019-05-13T07:39:11.772Z,21.97
2019-05-13T07:40:14.253Z,21.96
2019-05-13T07:41:31.384Z,21.94
2019-05-13T07:42:22.311Z,21.92
2019-05-13T07:43:25.156Z,21.92
2019-05-13T07:44:28.327Z,21.91
2019-05-13T07:45:31.725Z,21.90
2019-05-13T07:46:34.914Z,21.89
2019-05-13T07:47:37.689Z,21.88
2019-05-13T07:48:41.590Z,21.88
2019-05-13T07:49:44.622Z,21.86
2019-05-13T07:50:59.088Z,21.85
2019-05-13T07:51:52.275Z,21.84
2019-05-13T07:52:55.406Z,21.84
2019-05-13T07:53:58.093Z,21.83
2019-05-13T07:55:01.714Z,21.83
2019-05-13T07:56:04.740Z,21.81
2019-05-13T07:57:07.883Z,21.79
2019-05-13T07:58:11.510Z,21.78
2019-05-13T07:59:14.940Z,21.78
2019-05-13T08:00:17.770Z,21.77
2019-05-13T08:01:22.051Z,21.76
2019-05-13T08:02:24.959Z,21.76
2019-05-13T08:03:28.096Z,21.75
2019-05-13T08:04:33.428Z,21.74
2019-05-13T08:05:35.679Z,21.73
2019-05-13T08:06:38.445Z,21.73
2019-05-13T08:07:42.218Z,21.71
2019-05-13T08:08:45.143Z,21.71
2019-05-13T08:09:48.273Z,21.70
2019-05-13T08:10:51.943Z,21.69
2019-05-13T08:12:05.451Z,21.68
2019-05-13T08:12:59.593Z,21.67
2019-05-13T08:14:02.738Z,21.67
2019-05-13T08:15:08.488Z,21.68
2019-05-13T08:16:12.360Z,21.68
2019-05-13T08:17:15.278Z,21.66
2019-05-13T08:18:18.421Z,21.66
2019-05-13T08:19:21.780Z,21.66
2019-05-13T08:20:25.104Z,21.66
2019-05-13T08:21:27.950Z,21.66
2019-05-13T08:22:32.055Z,21.65
2019-05-13T08:23:35.057Z,21.66
2019-05-13T08:24:38.113Z,21.65
2019-05-13T08:25:42.403Z,21.66
2019-05-13T08:26:49.968Z,21.66
2019-05-13T08:27:51.457Z,21.66
2019-05-13T08:29:01.749Z,21.65
2019-05-13T08:30:01.481Z,21.65
2019-05-13T08:31:04.088Z,21.64
2019-05-13T08:32:06.877Z,21.64
2019-05-13T08:33:12.221Z,21.62
2019-05-13T08:34:14.648Z,21.60
2019-05-13T08:35:17.706Z,21.59
2019-05-13T08:36:23.291Z,21.59
2019-05-13T08:37:25.304Z,21.58
2019-05-13T08:38:27.972Z,21.58
2019-05-13T08:39:35.678Z,21.56
2019-05-13T08:40:35.610Z,21.57
2019-05-13T08:41:38.741Z,21.56
2019-05-13T08:42:41.736Z,21.55
2019-05-13T08:43:44.948Z,21.54
2019-05-13T08:44:47.696Z,21.54
2019-05-13T08:45:52.379Z,21.54
2019-05-13T08:46:56.723Z,21.54
2019-05-13T08:48:01.975Z,21.54
2019-05-13T08:49:04.431Z,21.53
2019-05-13T08:50:08.302Z,21.53
2019-05-13T08:51:11.766Z,21.53
2019-05-13T08:52:15.145Z,21.52
2019-05-13T08:53:18.124Z,21.52
2019-05-13T08:54:21.975Z,21.50
2019-05-13T08:55:24.898Z,21.51
2019-05-13T08:56:28.073Z,21.51
2019-05-13T08:57:31.579Z,21.50
2019-05-13T08:58:34.794Z,21.50
2019-05-13T08:59:37.557Z,21.49
2019-05-13T09:00:54.031Z,21.50
2019-05-13T09:01:56.868Z,21.50
2019-05-13T09:03:01.751Z,21.50
2019-05-13T09:04:04.437Z,21.50
2019-05-13T09:05:07.756Z,21.50
2019-05-13T09:06:11.622Z,21.51
2019-05-13T09:07:15.008Z,21.51
2019-05-13T09:08:22.370Z,21.51
2019-05-13T09:09:23.045Z,21.51
2019-05-13T09:10:25.874Z,21.51
2019-05-13T09:11:31.360Z,21.52
2019-05-13T09:12:36.349Z,21.52
2019-05-13T09:13:38.302Z,21.53
2019-05-13T09:14:41.696Z,21.56
2019-05-13T09:15:45.006Z,21.56
2019-05-13T09:16:47.767Z,21.56
2019-05-13T09:17:51.747Z,21.58
2019-05-13T09:18:54.644Z,21.60
2019-05-13T09:19:57.877Z,21.62
2019-05-13T09:21:02.471Z,21.63
2019-05-13T09:22:05.867Z,21.65
2019-05-13T09:23:08.641Z,21.66
2019-05-13T09:24:21.738Z,21.67
2019-05-13T09:25:16.232Z,21.68
2019-05-13T09:26:19.364Z,21.70
2019-05-13T09:27:22.670Z,21.72
2019-05-13T09:28:25.974Z,21.75
2019-05-13T09:29:28.811Z,21.75
2019-05-13T09:30:31.989Z,21.74
2019-05-13T09:31:34.756Z,21.74
2019-05-13T09:32:37.826Z,21.74
2019-05-13T09:33:41.781Z,21.74
2019-05-13T09:34:45.028Z,21.74
2019-05-13T09:35:50.112Z,21.74
2019-05-13T09:36:52.821Z,21.73
2019-05-13T09:37:55.585Z,21.72
2019-05-13T09:38:58.721Z,21.72
2019-05-13T09:40:02.343Z,21.72
2019-05-13T09:41:05.832Z,21.72
2019-05-13T09:42:08.597Z,21.73
2019-05-13T09:43:11.802Z,21.72
2019-05-13T09:44:14.795Z,21.72
2019-05-13T09:45:17.927Z,21.72
2019-05-13T09:46:22.766Z,21.71
2019-05-13T09:47:28.335Z,21.70
2019-05-13T09:48:31.936Z,21.69
2019-05-13T09:49:34.922Z,21.70
2019-05-13T09:50:37.747Z,21.70
2019-05-13T09:51:41.673Z,21.69
2019-05-13T09:52:44.656Z,21.69
2019-05-13T09:53:47.718Z,21.69
2019-05-13T09:54:52.365Z,21.69
2019-05-13T09:55:55.322Z,21.68
2019-05-13T09:56:58.056Z,21.68
2019-05-13T09:58:02.427Z,21.68
2019-05-13T09:59:05.446Z,21.67
2019-05-13T10:00:08.682Z,21.68
2019-05-13T10:01:12.370Z,21.69
2019-05-13T10:02:15.948Z,21.68
2019-05-13T10:03:18.692Z,21.68
2019-05-13T10:04:22.366Z,21.68
2019-05-13T10:05:25.367Z,21.69
2019-05-13T10:06:28.432Z,21.67
2019-05-13T10:07:31.970Z,21.67
2019-05-13T10:08:35.235Z,21.68
2019-05-13T10:09:38.063Z,21.67
2019-05-13T10:10:42.351Z,21.67
2019-05-13T10:11:45.362Z,21.67
2019-05-13T10:13:07.407Z,21.67
2019-05-13T10:13:52.990Z,21.67
2019-05-13T10:14:56.143Z,21.67
2019-05-13T10:15:58.891Z,21.68
2019-05-13T10:17:06.100Z,21.68
2019-05-13T10:18:06.586Z,21.68
2019-05-13T10:19:12.372Z,21.67
2019-05-13T10:20:16.257Z,21.68
2019-05-13T10:21:21.645Z,21.68
2019-05-13T10:22:23.506Z,21.69
2019-05-13T10:23:27.176Z,21.70
2019-05-13T10:24:32.288Z,21.71
2019-05-13T10:25:34.767Z,21.73
2019-05-13T10:26:37.633Z,21.75
2019-05-13T10:27:41.887Z,21.76
2019-05-13T10:28:44.944Z,21.77
2019-05-13T10:29:48.246Z,21.79
2019-05-13T10:30:53.202Z,21.78
2019-05-13T10:31:55.890Z,21.78
2019-05-13T10:32:59.574Z,21.79
2019-05-13T10:34:03.530Z,21.78
2019-05-13T10:35:06.784Z,21.79
2019-05-13T10:36:12.154Z,21.78
2019-05-13T10:37:14.498Z,21.79
2019-05-13T10:38:17.732Z,21.80
2019-05-13T10:39:22.326Z,21.83
2019-05-13T10:40:25.301Z,21.85
2019-05-13T10:41:28.059Z,21.86
2019-05-13T10:42:31.186Z,21.88
2019-05-13T10:43:40.043Z,21.90
2019-05-13T10:44:38.848Z,21.92
2019-05-13T10:45:41.760Z,21.95
2019-05-13T10:46:44.937Z,21.96
2019-05-13T10:47:47.721Z,21.98
2019-05-13T10:48:52.601Z,21.99
2019-05-13T10:49:55.230Z,22.01
2019-05-13T10:50:58.473Z,22.03
2019-05-13T10:52:03.125Z,22.04
2019-05-13T10:53:06.022Z,22.04
2019-05-13T10:54:08.786Z,22.04
2019-05-13T10:55:12.829Z,22.03
2019-05-13T10:56:15.900Z,22.02
2019-05-13T10:57:19.253Z,22.00
2019-05-13T10:58:23.435Z,21.99
2019-05-13T10:59:26.828Z,21.99
2019-05-13T11:00:46.087Z,21.98
2019-05-13T11:01:49.223Z,21.97
2019-05-13T11:02:51.980Z,21.97
2019-05-13T11:03:55.130Z,21.97
2019-05-13T11:04:57.892Z,21.99
2019-05-13T11:06:01.040Z,21.98
2019-05-13T11:07:04.032Z,21.97
2019-05-13T11:08:07.257Z,21.98
2019-05-13T11:09:13.073Z,21.97
2019-05-13T11:10:16.914Z,21.97
2019-05-13T11:11:21.885Z,21.96
2019-05-13T11:12:28.395Z,21.97
2019-05-13T11:13:49.505Z,21.95
2019-05-13T11:14:33.631Z,21.96
2019-05-13T11:15:41.147Z,21.93
2019-05-13T11:16:42.622Z,21.95
2019-05-13T11:17:45.629Z,21.94
2019-05-13T11:18:48.760Z,21.95
2019-05-13T11:19:51.520Z,21.95
2019-05-13T11:20:54.746Z,21.96
2019-05-13T11:21:57.448Z,21.96
2019-05-13T11:23:02.356Z,21.96
2019-05-13T11:24:04.985Z,21.96
2019-05-13T11:25:08.208Z,21.96
2019-05-13T11:26:12.893Z,21.97
2019-05-13T11:27:15.802Z,21.97
2019-05-13T11:28:18.569Z,21.96
2019-05-13T11:29:23.013Z,21.96
2019-05-13T11:30:26.522Z,21.94
2019-05-13T11:31:32.565Z,21.95
2019-05-13T11:32:35.274Z,21.93
2019-05-13T11:33:38.401Z,21.91
2019-05-13T11:34:41.950Z,21.90
2019-05-13T11:35:45.291Z,21.90
2019-05-13T11:36:48.066Z,21.87
2019-05-13T11:37:52.227Z,21.88
2019-05-13T11:38:55.087Z,21.88
2019-05-13T11:39:58.526Z,21.88
2019-05-13T11:41:02.339Z,21.89
2019-05-13T11:42:05.821Z,21.89
2019-05-13T11:43:08.630Z,21.89
2019-05-13T11:44:16.159Z,21.88
2019-05-13T11:45:16.365Z,21.87
2019-05-13T11:46:21.957Z,21.87
2019-05-13T11:47:23.925Z,21.87
2019-05-13T11:48:27.117Z,21.87
2019-05-13T11:49:31.593Z,21.86
2019-05-13T11:50:34.674Z,21.85
2019-05-13T11:51:37.434Z,21.86
2019-05-13T11:52:42.521Z,21.86
2019-05-13T11:53:45.290Z,21.86
2019-05-13T11:54:48.409Z,21.86
2019-05-13T11:55:52.319Z,21.85
2019-05-13T11:57:01.779Z,21.85
2019-05-13T11:58:02.936Z,21.86
2019-05-13T11:59:04.884Z,21.85
2019-05-13T12:00:13.499Z,21.84
2019-05-13T12:01:15.093Z,21.83
2019-05-13T12:02:17.770Z,21.84
2019-05-13T12:03:23.025Z,21.83
2019-05-13T12:04:25.322Z,21.83
2019-05-13T12:05:28.695Z,21.82
2019-05-13T12:06:33.834Z,21.83
2019-05-13T12:07:36.271Z,21.83
2019-05-13T12:08:39.031Z,21.82
2019-05-13T12:09:42.290Z,21.83
2019-05-13T12:10:45.046Z,21.82
2019-05-13T12:11:48.173Z,21.83
2019-05-13T12:12:50.943Z,21.82
2019-05-13T12:13:54.065Z,21.82
2019-05-13T12:15:22.481Z,21.82
2019-05-13T12:16:03.799Z,21.82
2019-05-13T12:17:05.981Z,21.82
2019-05-13T12:18:09.117Z,21.84
2019-05-13T12:19:12.133Z,21.82
2019-05-13T12:20:15.337Z,21.83
2019-05-13T12:21:18.319Z,21.83
2019-05-13T12:22:22.984Z,21.82
2019-05-13T12:23:26.003Z,21.81
2019-05-13T12:24:29.133Z,21.82
2019-05-13T12:25:33.512Z,21.82
2019-05-13T12:26:36.759Z,21.83
2019-05-13T12:27:41.364Z,21.84
2019-05-13T12:28:44.226Z,21.83
2019-05-13T12:29:47.038Z,21.85
2019-05-13T12:30:52.732Z,21.85
2019-05-13T12:31:54.573Z,21.86
2019-05-13T12:32:57.703Z,21.87
2019-05-13T12:34:03.525Z,21.87
2019-05-13T12:35:06.048Z,21.87
2019-05-13T12:36:15.385Z,21.89
2019-05-13T12:37:13.845Z,21.88
2019-05-13T12:38:16.504Z,21.89
2019-05-13T12:39:23.528Z,21.90
2019-05-13T12:40:24.032Z,21.91
2019-05-13T12:41:27.295Z,21.92
2019-05-13T12:42:33.271Z,21.93
2019-05-13T12:43:34.829Z,21.94
2019-05-13T12:44:59.894Z,21.94
2019-05-13T12:45:43.380Z,21.95
2019-05-13T12:46:50.186Z,21.95
2019-05-13T12:47:53.114Z,21.95
2019-05-13T12:48:55.448Z,21.94
2019-05-13T12:49:58.610Z,21.95
2019-05-13T12:51:03.138Z,21.95
2019-05-13T12:52:06.139Z,21.94
2019-05-13T12:53:12.272Z,21.95
2019-05-13T12:54:14.293Z,21.95
2019-05-13T12:55:17.330Z,21.94
2019-05-13T12:56:23.226Z,21.93
2019-05-13T12:57:24.917Z,21.92
2019-05-13T12:58:28.075Z,21.93
2019-05-13T12:59:32.132Z,21.93
2019-05-13T13:00:35.447Z,21.93
2019-05-13T13:01:38.199Z,21.93
2019-05-13T13:02:49.178Z,21.91
2019-05-13T13:03:46.103Z,21.91
2019-05-13T13:05:09.101Z,21.92
2019-05-13T13:05:53.565Z,21.90
2019-05-13T13:06:56.697Z,21.90
2019-05-13T13:08:17.130Z,21.90
2019-05-13T13:09:05.827Z,21.89
2019-05-13T13:10:08.564Z,21.90
2019-05-13T13:11:11.855Z,21.90
2019-05-13T13:12:14.591Z,21.89
2019-05-13T13:13:17.751Z,21.89
2019-05-13T13:14:20.600Z,21.88
2019-05-13T13:15:37.197Z,21.89
2019-05-13T13:16:34.425Z,21.88
2019-05-13T13:17:33.164Z,21.89
2019-05-13T13:18:36.212Z,21.88
2019-05-13T13:19:41.249Z,21.88
2019-05-13T13:20:43.820Z,21.89
2019-05-13T13:21:46.958Z,21.88
2019-05-13T13:22:49.644Z,21.88
2019-05-13T13:23:52.767Z,21.88
2019-05-13T13:24:57.505Z,21.89
2019-05-13T13:26:03.011Z,21.88
2019-05-13T13:27:04.735Z,21.87
2019-05-13T13:28:12.120Z,21.87
2019-05-13T13:29:12.265Z,21.87
2019-05-13T13:30:15.957Z,21.87
2019-05-13T13:31:18.660Z,21.86
2019-05-13T13:32:24.647Z,21.85
2019-05-13T13:33:26.213Z,21.86
2019-05-13T13:34:33.403Z,21.85
2019-05-13T13:35:34.149Z,21.85
2019-05-13T13:36:37.339Z,21.86
2019-05-13T13:37:45.051Z,21.87
2019-05-13T13:38:44.956Z,21.85
2019-05-13T13:39:47.722Z,21.86
2019-05-13T13:40:53.536Z,21.86
2019-05-13T13:41:55.254Z,21.85
2019-05-13T13:42:58.453Z,21.85
2019-05-13T13:44:05.417Z,21.84